Time;durP1;ratioP1;P1;durP2;ratioP2;P2;SDS_P1;SDS_P2;PMS_P1;PMS_P2;Temp;Humidity;BMP_temperature;BMP_pressure;BME280_temperature;BME280_humidity;BME280_pressure;Samples;Min_cycle;Max_cycle;Signal;HPM_P1;HPM_P2
2021/05/10 04:02:44;;;;;;;3.93;3.73;;;16.40;99.90;;;;;;4917186;29;20470;-71
2021/05/10 04:05:17;;;;;;;4.43;4.23;;;16.40;99.90;;;;;;4922692;29;20532;-71
2021/05/10 04:07:51;;;;;;;4.10;3.90;;;16.50;99.90;;;;;;4919232;29;20947;-71
2021/05/10 04:10:38;;;;;;;4.93;4.50;;;16.60;99.90;;;;;;4926749;29;20458;-71
2021/05/10 04:15:51;;;;;;;5.00;4.70;;;16.60;99.90;;;;;;4924724;29;20458;-71
2021/05/10 04:18:20;;;;;;;3.67;3.60;;;16.60;99.90;;;;;;4918728;29;20478;-71
2021/05/10 04:20:46;;;;;;;4.47;4.27;;;16.60;99.90;;;;;;4928974;29;20485;-71
2021/05/10 04:23:16;;;;;;;4.10;3.70;;;16.60;99.90;;;;;;4937853;29;20472;-71
2021/05/10 04:25:42;;;;;;;3.90;3.80;;;16.60;99.90;;;;;;4928535;28;20474;-71
2021/05/10 04:28:09;;;;;;;3.90;3.70;;;16.60;99.90;;;;;;4919209;29;20473;-72
2021/05/10 04:30:35;;;;;;;4.40;4.20;;;16.60;99.90;;;;;;4926695;29;20840;-72
2021/05/10 04:33:01;;;;;;;4.03;3.93;;;16.70;99.90;;;;;;4937680;29;21178;-72
2021/05/10 04:35:28;;;;;;;3.93;3.83;;;16.80;99.90;;;;;;4931164;29;20494;-72
2021/05/10 04:37:55;;;;;;;4.10;3.90;;;16.90;99.90;;;;;;4918186;29;20517;-70
2021/05/10 04:40:21;;;;;;;4.30;4.10;;;16.90;99.90;;;;;;4923386;29;20469;-70
2021/05/10 04:42:48;;;;;;;3.60;3.50;;;16.90;99.90;;;;;;4921416;29;20981;-71
2021/05/10 04:45:14;;;;;;;3.90;3.70;;;16.90;99.90;;;;;;4922074;29;20597;-71
2021/05/10 04:47:41;;;;;;;4.87;4.47;;;16.90;99.90;;;;;;4938034;29;20791;-71
2021/05/10 04:50:10;;;;;;;3.97;3.97;;;17.00;99.90;;;;;;4935956;28;20485;-71
2021/05/10 04:52:37;;;;;;;4.13;4.03;;;17.00;99.90;;;;;;4926126;29;20458;-71
2021/05/10 04:55:04;;;;;;;3.47;3.47;;;17.00;99.90;;;;;;4919197;29;20493;-71
2021/05/10 04:57:30;;;;;;;4.03;3.83;;;16.90;99.90;;;;;;4937181;29;20465;-71
2021/05/10 04:59:56;;;;;;;4.17;4.03;;;16.90;99.90;;;;;;4920838;29;20466;-71
2021/05/10 05:02:23;;;;;;;4.70;4.60;;;17.00;99.90;;;;;;4918112;29;20510;-71
2021/05/10 05:04:49;;;;;;;5.10;4.80;;;17.00;99.90;;;;;;4932806;29;20458;-71
2021/05/10 05:07:15;;;;;;;4.03;3.73;;;17.00;99.90;;;;;;4931620;29;20845;-71
2021/05/10 05:09:43;;;;;;;4.10;3.90;;;17.10;99.90;;;;;;4932419;29;20462;-71
2021/05/10 05:12:09;;;;;;;4.03;3.93;;;17.10;99.90;;;;;;4918822;29;20574;-70
2021/05/10 05:14:36;;;;;;;3.57;3.50;;;17.10;99.90;;;;;;4930639;29;20856;-70
2021/05/10 05:17:02;;;;;;;4.47;4.23;;;17.10;99.90;;;;;;4937775;29;20473;-70
2021/05/10 05:19:28;;;;;;;4.07;3.87;;;17.10;99.90;;;;;;4925132;29;20467;-71
2021/05/10 05:21:54;;;;;;;4.63;4.33;;;17.10;99.90;;;;;;4917937;29;20490;-71
2021/05/10 05:24:21;;;;;;;4.20;4.03;;;17.10;99.90;;;;;;4928132;29;20906;-71
2021/05/10 05:26:48;;;;;;;4.33;4.23;;;17.20;99.90;;;;;;4927183;29;20470;-71
2021/05/10 05:29:14;;;;;;;5.97;5.57;;;17.20;99.90;;;;;;4926953;29;20454;-71
2021/05/10 05:31:41;;;;;;;4.50;4.30;;;17.20;99.90;;;;;;4936931;29;20489;-70
2021/05/10 05:34:07;;;;;;;4.00;3.90;;;17.20;99.90;;;;;;4928162;29;20537;-71
2021/05/10 05:36:33;;;;;;;5.40;4.10;;;17.20;99.90;;;;;;4918042;29;20566;-71
2021/05/10 05:38:59;;;;;;;4.20;4.10;;;17.30;99.90;;;;;;4918242;29;20477;-71
2021/05/10 05:41:25;;;;;;;4.70;4.27;;;17.40;99.90;;;;;;4917490;29;20482;-71
2021/05/10 05:43:52;;;;;;;4.10;3.90;;;17.50;99.90;;;;;;4919232;29;20462;-71
2021/05/10 05:46:21;;;;;;;4.00;3.80;;;17.50;99.90;;;;;;4919183;29;20466;-71
2021/05/10 05:48:47;;;;;;;4.50;4.20;;;17.60;99.90;;;;;;4922453;29;20942;-71
2021/05/10 05:51:13;;;;;;;3.97;3.77;;;17.80;99.90;;;;;;4936342;29;20497;-71
2021/05/10 05:53:40;;;;;;;4.13;3.80;;;17.80;99.90;;;;;;4934338;29;20584;-72
2021/05/10 05:56:06;;;;;;;3.97;3.73;;;17.90;99.90;;;;;;4918921;29;20469;-73
2021/05/10 05:58:32;;;;;;;7.00;4.00;;;18.00;99.90;;;;;;4925618;29;20485;-72
2021/05/10 06:00:59;;;;;;;4.33;4.03;;;18.00;99.90;;;;;;4934925;29;20497;-72
2021/05/10 06:03:25;;;;;;;4.33;4.00;;;18.00;99.90;;;;;;4925753;29;20466;-72
2021/05/10 06:05:52;;;;;;;3.83;3.73;;;18.10;99.90;;;;;;4922828;29;20462;-73
2021/05/10 06:08:18;;;;;;;3.90;3.80;;;18.10;99.90;;;;;;4936715;29;20489;-73
2021/05/10 06:10:45;;;;;;;4.40;4.10;;;18.20;99.90;;;;;;4933614;29;20485;-72
2021/05/10 06:13:12;;;;;;;4.90;4.40;;;18.20;99.90;;;;;;4921731;29;20469;-74
2021/05/10 06:15:38;;;;;;;4.50;4.20;;;18.30;99.90;;;;;;4923572;29;20540;-72
2021/05/10 06:18:07;;;;;;;4.80;4.40;;;18.40;99.90;;;;;;4930912;29;20466;-73
2021/05/10 06:20:34;;;;;;;3.30;3.30;;;18.40;99.90;;;;;;4924282;29;20482;-74
2021/05/10 06:23:02;;;;;;;4.17;3.87;;;18.60;99.90;;;;;;4938356;29;20548;-73
2021/05/10 06:25:28;;;;;;;4.07;3.80;;;18.80;99.90;;;;;;4919849;29;20459;-73
2021/05/10 06:27:55;;;;;;;4.10;3.90;;;18.90;99.90;;;;;;4919227;29;20514;-73
2021/05/10 06:30:21;;;;;;;3.67;3.67;;;19.00;99.90;;;;;;4919773;29;20462;-73
2021/05/10 06:32:49;;;;;;;4.10;4.00;;;19.10;99.90;;;;;;4918893;29;20526;-73
2021/05/10 06:35:16;;;;;;;4.97;4.10;;;19.10;99.90;;;;;;4928881;29;20671;-73
2021/05/10 06:37:42;;;;;;;4.60;4.20;;;19.10;99.90;;;;;;4936745;29;20795;-72
2021/05/10 06:40:10;;;;;;;3.93;3.83;;;19.20;99.90;;;;;;4925930;29;20491;-72
2021/05/10 06:42:37;;;;;;;4.57;4.17;;;19.30;99.90;;;;;;4917782;29;20489;-71
2021/05/10 06:45:05;;;;;;;4.53;4.33;;;19.40;99.90;;;;;;4917127;29;20462;-73
2021/05/10 06:47:32;;;;;;;4.27;4.17;;;19.70;99.90;;;;;;4916986;29;20502;-73
2021/05/10 06:49:58;;;;;;;4.80;4.50;;;19.90;99.90;;;;;;4916579;29;20637;-73
2021/05/10 06:52:26;;;;;;;4.37;4.17;;;20.10;99.90;;;;;;4916413;29;20498;-73
2021/05/10 06:54:52;;;;;;;4.50;4.30;;;20.20;99.90;;;;;;4916791;29;20546;-72
2021/05/10 06:57:18;;;;;;;4.57;4.27;;;20.20;99.90;;;;;;4917464;29;20482;-71
2021/05/10 06:59:44;;;;;;;4.33;4.20;;;20.20;99.90;;;;;;4918205;29;20482;-73
2021/05/10 07:02:11;;;;;;;4.27;4.00;;;20.20;99.90;;;;;;4925565;29;20561;-72
2021/05/10 07:04:37;;;;;;;4.10;4.00;;;20.10;99.90;;;;;;4916167;29;20771;-71
2021/05/10 07:07:03;;;;;;;3.53;3.43;;;20.10;99.90;;;;;;4914306;29;20473;-74
2021/05/10 07:09:30;;;;;;;3.77;3.60;;;20.10;99.90;;;;;;4916887;29;20593;-71
2021/05/10 07:11:57;;;;;;;3.60;3.40;;;20.10;99.90;;;;;;4927078;28;20493;-72
2021/05/10 07:14:23;;;;;;;3.80;3.70;;;20.10;99.90;;;;;;4930602;29;20490;-71
2021/05/10 07:16:49;;;;;;;3.83;3.63;;;20.10;99.90;;;;;;4914311;29;20477;-72
2021/05/10 07:19:15;;;;;;;3.63;3.53;;;20.10;99.90;;;;;;4917384;29;20460;-72
2021/05/10 07:21:42;;;;;;;3.73;3.63;;;20.10;99.90;;;;;;4916028;29;20513;-73
2021/05/10 07:24:08;;;;;;;3.60;3.50;;;20.10;99.90;;;;;;4916392;29;20471;-73
2021/05/10 07:26:35;;;;;;;3.80;3.47;;;20.10;99.90;;;;;;4916065;29;20930;-72
2021/05/10 07:29:02;;;;;;;3.93;3.80;;;20.10;99.90;;;;;;4916720;29;20979;-73
2021/05/10 07:31:28;;;;;;;4.60;4.30;;;20.00;99.90;;;;;;4916424;29;20565;-73
2021/05/10 07:33:54;;;;;;;3.63;3.43;;;20.10;99.90;;;;;;4911379;29;20546;-73
2021/05/10 07:36:20;;;;;;;3.93;3.73;;;20.10;99.90;;;;;;4923893;29;20971;-70
2021/05/10 07:38:46;;;;;;;3.90;3.80;;;20.10;99.90;;;;;;4918535;29;20537;-70
2021/05/10 07:41:13;;;;;;;3.83;3.73;;;20.20;99.90;;;;;;4915724;29;20995;-72
2021/05/10 07:43:40;;;;;;;3.83;3.60;;;20.20;99.90;;;;;;4916067;29;20545;-71
2021/05/10 07:46:07;;;;;;;4.03;3.93;;;20.30;99.90;;;;;;4916031;29;20907;-72
2021/05/10 07:48:33;;;;;;;4.20;3.90;;;20.40;99.90;;;;;;4915141;29;20463;-72
2021/05/10 07:50:59;;;;;;;3.87;3.67;;;20.40;99.90;;;;;;4914528;29;20478;-72
2021/05/10 07:53:26;;;;;;;3.80;3.70;;;20.40;99.90;;;;;;4915367;29;20478;-73
2021/05/10 07:55:53;;;;;;;4.63;4.43;;;20.50;99.90;;;;;;4915912;29;20462;-72
2021/05/10 07:58:21;;;;;;;4.57;4.37;;;20.70;99.90;;;;;;4916010;29;20472;-72
2021/05/10 08:00:51;;;;;;;4.13;4.00;;;20.70;99.90;;;;;;4915802;29;20872;-72
2021/05/10 08:03:18;;;;;;;3.90;3.80;;;20.80;99.90;;;;;;4915044;29;20463;-73
2021/05/10 08:05:45;;;;;;;3.70;3.70;;;21.00;99.90;;;;;;4914938;29;20465;-73
2021/05/10 08:08:13;;;;;;;4.50;4.30;;;21.00;99.90;;;;;;4914947;29;20470;-73
2021/05/10 08:10:39;;;;;;;4.00;3.90;;;21.10;99.90;;;;;;4915614;29;20513;-73
2021/05/10 08:13:05;;;;;;;4.83;4.43;;;21.40;99.90;;;;;;4915351;29;20465;-72
2021/05/10 08:15:32;;;;;;;4.40;4.20;;;21.70;99.90;;;;;;4915349;29;20599;-72
2021/05/10 08:17:59;;;;;;;4.40;4.20;;;21.80;99.90;;;;;;4915155;29;20779;-72
2021/05/10 08:20:25;;;;;;;4.20;4.00;;;22.00;99.90;;;;;;4915221;29;20474;-71
2021/05/10 08:22:51;;;;;;;7.17;4.17;;;22.10;99.90;;;;;;4915794;29;20489;-73
2021/05/10 08:25:18;;;;;;;4.00;3.90;;;22.30;99.90;;;;;;4917815;29;20462;-73
2021/05/10 08:27:44;;;;;;;4.00;3.80;;;22.40;99.90;;;;;;4918403;29;20471;-73
2021/05/10 08:30:13;;;;;;;3.10;2.90;;;22.60;99.90;;;;;;4916423;29;20462;-73
2021/05/10 08:32:40;;;;;;;4.63;3.63;;;22.80;99.90;;;;;;4907263;29;21014;-73
2021/05/10 08:35:09;;;;;;;3.47;3.33;;;23.00;99.90;;;;;;4919301;29;20490;-73
2021/05/10 08:37:36;;;;;;;3.33;3.20;;;23.20;99.90;;;;;;4919549;29;20458;-72
2021/05/10 08:40:04;;;;;;;3.80;3.60;;;23.60;99.90;;;;;;4918994;29;20914;-72
2021/05/10 08:42:30;;;;;;;4.03;3.53;;;23.90;99.90;;;;;;4918900;29;20490;-72
2021/05/10 08:44:57;;;;;;;3.17;2.87;;;24.20;99.90;;;;;;4918095;29;20466;-72
2021/05/10 08:47:31;;;;;;;3.20;2.90;;;24.30;99.90;;;;;;4919457;29;20466;-72
2021/05/10 08:49:58;;;;;;;3.93;3.60;;;24.40;99.90;;;;;;4918370;29;20462;-71
2021/05/10 08:52:25;;;;;;;3.20;3.10;;;24.50;99.90;;;;;;4917905;29;20482;-71
2021/05/10 08:54:52;;;;;;;3.30;3.20;;;24.60;99.90;;;;;;4918472;29;20582;-71
2021/05/10 08:57:18;;;;;;;3.63;3.53;;;24.60;99.90;;;;;;4918407;29;20466;-72
2021/05/10 08:59:44;;;;;;;3.80;3.60;;;24.70;99.90;;;;;;4918550;29;20514;-70
2021/05/10 09:02:11;;;;;;;2.90;2.90;;;24.90;99.90;;;;;;4917886;29;20502;-71
2021/05/10 09:04:39;;;;;;;3.30;3.00;;;25.00;99.90;;;;;;4917433;29;20474;-72
2021/05/10 09:07:16;;;;;;;3.10;3.10;;;25.10;99.90;;;;;;4917782;29;20462;-72
2021/05/10 09:09:58;;;;;;;3.23;3.13;;;25.20;99.90;;;;;;4918420;29;20466;-72
2021/05/10 09:12:39;;;;;;;3.37;3.00;;;25.20;99.90;;;;;;4907125;29;20497;-72
2021/05/10 09:15:19;;;;;;;3.10;3.10;;;25.30;99.90;;;;;;4918345;29;20474;-73
2021/05/10 09:17:47;;;;;;;3.40;3.30;;;25.40;99.90;;;;;;4916162;29;20500;-73
2021/05/10 09:20:15;;;;;;;2.77;2.77;;;25.60;99.90;;;;;;4917746;29;20466;-73
2021/05/10 09:22:51;;;;;;;3.33;3.07;;;25.60;98.70;;;;;;4916938;29;20471;-72
2021/05/10 09:25:19;;;;;;;3.20;3.00;;;25.60;99.40;;;;;;4918395;29;20457;-71
2021/05/10 09:27:46;;;;;;;3.30;3.20;;;25.60;99.30;;;;;;4918077;29;20463;-70
2021/05/10 09:30:19;;;;;;;3.07;2.87;;;25.80;99.20;;;;;;4918422;29;20461;-70
2021/05/10 09:32:53;;;;;;;2.53;2.43;;;25.90;98.30;;;;;;4917084;29;20477;-70
2021/05/10 09:35:22;;;;;;;3.23;2.93;;;26.00;97.70;;;;;;4918346;29;20494;-71
2021/05/10 09:38:00;;;;;;;2.90;2.43;;;26.30;96.80;;;;;;4923994;29;20466;-70
2021/05/10 09:40:31;;;;;;;3.40;3.13;;;26.50;95.70;;;;;;4919347;29;20494;-71
2021/05/10 09:42:59;;;;;;;3.00;3.00;;;26.50;95.10;;;;;;4918597;29;20466;-71
2021/05/10 09:45:34;;;;;;;2.97;2.63;;;26.50;95.60;;;;;;4919975;29;20945;-72
2021/05/10 09:48:09;;;;;;;2.40;2.40;;;26.50;94.80;;;;;;4920791;29;20469;-71
2021/05/10 09:50:38;;;;;;;2.80;2.70;;;26.60;93.40;;;;;;4918100;29;20578;-71
2021/05/10 09:53:05;;;;;;;2.70;2.67;;;26.60;93.70;;;;;;4917085;29;20470;-71
2021/05/10 09:55:42;;;;;;;2.43;2.33;;;26.70;93.30;;;;;;4917177;29;20582;-71
2021/05/10 09:58:08;;;;;;;2.50;2.50;;;26.80;93.20;;;;;;4917431;29;20865;-71
2021/05/10 10:00:35;;;;;;;2.87;2.80;;;26.90;93.10;;;;;;4916861;29;20490;-71
2021/05/10 10:03:01;;;;;;;3.17;3.07;;;26.80;93.10;;;;;;4916915;29;20474;-71
2021/05/10 10:05:29;;;;;;;3.20;3.00;;;26.80;93.60;;;;;;4916667;29;21015;-71
2021/05/10 10:07:56;;;;;;;2.47;2.30;;;26.80;94.00;;;;;;4917050;29;21022;-71
2021/05/10 10:10:22;;;;;;;4.10;4.00;;;26.90;94.50;;;;;;4917006;29;20479;-71
2021/05/10 10:12:49;;;;;;;3.10;3.10;;;27.00;94.40;;;;;;4916407;29;20477;-71
2021/05/10 10:15:15;;;;;;;4.40;3.40;;;27.00;94.40;;;;;;4916786;29;20478;-72
2021/05/10 10:17:44;;;;;;;3.10;3.10;;;27.00;94.50;;;;;;4916862;29;20486;-72
2021/05/10 10:20:12;;;;;;;3.70;3.50;;;26.90;94.40;;;;;;4916929;29;20470;-72
2021/05/10 10:22:39;;;;;;;3.47;3.27;;;26.90;94.30;;;;;;4926773;29;20553;-72
2021/05/10 10:25:07;;;;;;;3.10;2.90;;;27.10;94.50;;;;;;4936391;29;20469;-72
2021/05/10 10:27:34;;;;;;;3.27;3.07;;;27.20;93.70;;;;;;4917230;29;20513;-72
2021/05/10 10:30:02;;;;;;;3.23;3.13;;;27.10;93.20;;;;;;4916068;29;20466;-72
2021/05/10 10:32:30;;;;;;;3.47;3.33;;;27.10;92.70;;;;;;4923018;29;20501;-71
2021/05/10 10:34:57;;;;;;;3.10;3.10;;;27.00;92.50;;;;;;4908718;29;20490;-70
2021/05/10 10:37:25;;;;;;;3.07;2.90;;;27.00;92.20;;;;;;4912928;29;20473;-70
2021/05/10 10:39:53;;;;;;;3.20;2.90;;;26.90;91.80;;;;;;4904966;29;20570;-71
2021/05/10 10:42:25;;;;;;;2.73;2.63;;;26.80;91.30;;;;;;4915907;29;20491;-70
2021/05/10 10:44:56;;;;;;;3.53;3.43;;;27.00;90.70;;;;;;4916409;29;20932;-72
2021/05/10 10:47:46;;;;;;;3.10;2.77;;;27.20;91.20;;;;;;4916592;29;20514;-72
2021/05/10 10:50:13;;;;;;;3.07;2.90;;;27.20;90.70;;;;;;4905440;29;20840;-72
2021/05/10 10:52:47;;;;;;;2.70;2.60;;;27.30;88.40;;;;;;4916229;29;20462;-71
2021/05/10 10:55:15;;;;;;;2.50;2.40;;;27.30;89.20;;;;;;4915742;29;20475;-71
2021/05/10 10:57:41;;;;;;;2.40;2.40;;;27.30;87.80;;;;;;4916494;29;20530;-69
2021/05/10 11:00:09;;;;;;;2.80;2.70;;;27.40;85.80;;;;;;4916128;29;20833;-71
2021/05/10 11:02:47;;;;;;;2.10;2.00;;;27.40;85.50;;;;;;4916162;29;20963;-71
2021/05/10 11:05:16;;;;;;;2.33;2.20;;;27.30;85.90;;;;;;4915549;29;20462;-72
2021/05/10 11:07:46;;;;;;;3.17;3.07;;;27.30;85.30;;;;;;4915994;29;20802;-72
2021/05/10 11:10:13;;;;;;;2.00;2.00;;;27.20;84.10;;;;;;4915564;29;21023;-71
2021/05/10 11:12:49;;;;;;;2.60;2.50;;;27.30;82.20;;;;;;4915435;29;20837;-71
2021/05/10 11:15:46;;;;;;;2.67;2.57;;;27.40;83.30;;;;;;4915754;29;20489;-72
2021/05/10 11:18:36;;;;;;;3.00;2.80;;;27.30;82.10;;;;;;4911348;29;20778;-72
2021/05/10 11:21:04;;;;;;;2.40;2.33;;;27.40;82.10;;;;;;4915804;29;21018;-72
2021/05/10 11:23:35;;;;;;;2.47;2.37;;;27.40;82.00;;;;;;4918827;29;20477;-71
2021/05/10 11:26:04;;;;;;;2.67;2.60;;;27.70;79.90;;;;;;4904493;29;20471;-71
2021/05/10 11:28:46;;;;;;;2.50;2.40;;;27.70;80.80;;;;;;4907805;29;20471;-70
2021/05/10 11:31:17;;;;;;;2.20;2.10;;;27.90;79.20;;;;;;4915755;29;20562;-70
2021/05/10 11:34:23;;;;;;;2.50;2.30;;;27.90;75.60;;;;;;4906761;29;20874;-72
2021/05/10 11:36:51;;;;;;;2.57;2.47;;;28.00;75.80;;;;;;4915401;29;20472;-71
2021/05/10 11:39:25;;;;;;;2.70;2.20;;;28.00;75.20;;;;;;4916057;29;20476;-72
2021/05/10 11:41:57;;;;;;;1.70;1.63;;;28.10;73.60;;;;;;4915944;29;20883;-71
2021/05/10 11:44:25;;;;;;;1.93;1.93;;;28.10;71.30;;;;;;4914260;29;20951;-72
2021/05/10 11:46:52;;;;;;;2.47;2.07;;;28.10;70.80;;;;;;4915139;29;20471;-72
2021/05/10 11:49:28;;;;;;;2.10;2.10;;;28.20;70.10;;;;;;4915184;29;20495;-71
2021/05/10 11:51:55;;;;;;;3.20;2.93;;;28.30;70.20;;;;;;4907200;29;20561;-71
2021/05/10 11:54:22;;;;;;;2.20;2.10;;;28.30;67.40;;;;;;4915347;29;20505;-71
2021/05/10 11:56:51;;;;;;;2.10;2.00;;;28.20;69.00;;;;;;4915724;29;20884;-72
2021/05/10 12:02:18;;;;;;;2.30;2.30;;;28.10;68.60;;;;;;4907145;29;20522;-70
2021/05/10 12:04:48;;;;;;;2.20;2.20;;;28.00;68.10;;;;;;4910344;29;20569;-70
2021/05/10 12:07:14;;;;;;;2.13;2.03;;;27.80;68.20;;;;;;4917534;29;20470;-72
2021/05/10 12:09:45;;;;;;;2.10;2.10;;;27.80;69.30;;;;;;4919401;29;20481;-72
2021/05/10 12:12:39;;;;;;;1.83;1.83;;;27.90;69.10;;;;;;4910801;29;20490;-72
2021/05/10 12:15:12;;;;;;;3.20;2.50;;;28.00;68.20;;;;;;4896167;29;21045;-72
2021/05/10 12:17:39;;;;;;;2.20;2.10;;;28.00;67.80;;;;;;4918682;29;20467;-72
2021/05/10 12:20:08;;;;;;;2.13;2.03;;;28.00;67.60;;;;;;4919192;29;20589;-72
2021/05/10 12:22:38;;;;;;;2.27;2.17;;;28.00;67.00;;;;;;4919445;29;20537;-71
2021/05/10 12:25:10;;;;;;;2.00;1.90;;;27.90;66.70;;;;;;4914367;29;20492;-72
2021/05/10 12:27:41;;;;;;;1.87;1.80;;;27.80;69.30;;;;;;4914192;29;20474;-72
2021/05/10 12:30:14;;;;;;;2.10;2.10;;;27.70;69.80;;;;;;4921875;29;20474;-72
2021/05/10 12:32:42;;;;;;;1.83;1.83;;;27.50;69.90;;;;;;4918570;29;20474;-72
2021/05/10 12:35:11;;;;;;;2.30;2.10;;;27.40;71.00;;;;;;4918701;29;20509;-72
2021/05/10 12:37:42;;;;;;;2.33;2.23;;;27.50;71.20;;;;;;4919299;29;20466;-72
2021/05/10 12:40:10;;;;;;;2.23;1.93;;;27.50;72.70;;;;;;4919094;29;20815;-72
2021/05/10 12:42:36;;;;;;;2.27;2.17;;;27.50;71.80;;;;;;4920759;29;20868;-72
2021/05/10 12:45:05;;;;;;;1.93;1.83;;;27.50;72.80;;;;;;4918541;29;20466;-73
2021/05/10 12:47:49;;;;;;;2.13;2.13;;;27.50;72.80;;;;;;4910475;29;20473;-72
2021/05/10 12:50:37;;;;;;;2.73;2.63;;;27.50;73.20;;;;;;4917835;29;20470;-71
2021/05/10 12:53:05;;;;;;;2.57;2.57;;;27.50;73.40;;;;;;4918633;29;20486;-71
2021/05/10 12:55:32;;;;;;;2.60;2.50;;;27.50;73.50;;;;;;4918849;29;20543;-71
2021/05/10 12:57:59;;;;;;;2.67;2.53;;;27.50;74.70;;;;;;4918432;29;20474;-71
2021/05/10 13:00:30;;;;;;;2.43;2.30;;;27.60;74.90;;;;;;4917830;29;20475;-71
2021/05/10 13:02:57;;;;;;;2.27;2.27;;;27.50;74.90;;;;;;4918031;29;20565;-72
2021/05/10 13:05:35;;;;;;;2.23;2.03;;;27.50;75.30;;;;;;4917628;29;21015;-70
2021/05/10 13:08:03;;;;;;;2.17;2.07;;;27.60;76.30;;;;;;4917865;29;20494;-73
2021/05/10 13:10:29;;;;;;;2.50;2.40;;;27.80;75.90;;;;;;4918094;29;20510;-73
2021/05/10 13:12:56;;;;;;;2.20;2.03;;;27.80;74.70;;;;;;4917907;29;20475;-73
2021/05/10 13:15:27;;;;;;;2.03;1.93;;;27.80;74.40;;;;;;4917563;29;20523;-73
2021/05/10 13:18:05;;;;;;;2.20;2.10;;;27.80;73.80;;;;;;4916760;29;20477;-74
2021/05/10 13:21:14;;;;;;;2.30;2.30;;;27.70;73.40;;;;;;4918268;29;20494;-74
2021/05/10 13:32:06;;;;;;;2.30;2.20;;;27.20;75.60;;;;;;4918453;29;20903;-72
2021/05/10 13:34:49;;;;;;;2.50;2.40;;;27.00;76.00;;;;;;4920247;29;20494;-72
2021/05/10 13:37:16;;;;;;;2.67;2.60;;;26.90;76.90;;;;;;4917655;29;20842;-72
2021/05/10 13:39:43;;;;;;;2.63;2.53;;;26.70;77.80;;;;;;4917437;29;20474;-70
2021/05/10 13:42:15;;;;;;;2.13;2.13;;;26.40;79.40;;;;;;4917867;29;20494;-70
2021/05/10 13:44:41;;;;;;;2.00;1.90;;;26.20;80.90;;;;;;4919038;29;20891;-72
2021/05/10 13:47:07;;;;;;;2.33;2.20;;;25.90;81.70;;;;;;4917917;29;20470;-72
2021/05/10 13:49:35;;;;;;;2.00;1.90;;;25.90;82.80;;;;;;4918035;29;20466;-72
2021/05/10 13:52:02;;;;;;;1.60;1.60;;;25.90;82.80;;;;;;4934319;29;20491;-72
2021/05/10 13:54:29;;;;;;;1.87;1.70;;;26.00;83.60;;;;;;4936182;29;20478;-72
2021/05/10 13:56:56;;;;;;;3.30;2.03;;;25.90;83.40;;;;;;4937557;29;20473;-73
2021/05/10 13:59:24;;;;;;;1.73;1.63;;;26.00;83.10;;;;;;4909624;29;20478;-71
2021/05/10 14:01:50;;;;;;;2.07;1.40;;;26.00;83.80;;;;;;4917535;29;20502;-71
2021/05/10 14:04:17;;;;;;;1.77;1.67;;;25.90;84.00;;;;;;4915976;29;20959;-73
2021/05/10 14:06:43;;;;;;;2.13;2.03;;;25.90;83.20;;;;;;4916531;29;20466;-73
2021/05/10 14:09:12;;;;;;;2.30;2.20;;;25.90;84.40;;;;;;4917277;29;20866;-73
2021/05/10 14:11:40;;;;;;;1.53;1.50;;;25.80;83.40;;;;;;4917085;29;20585;-72
2021/05/10 14:14:06;;;;;;;4.93;1.40;;;25.70;84.90;;;;;;4907707;29;20923;-72
2021/05/10 14:16:32;;;;;;;1.93;1.70;;;25.60;85.10;;;;;;4916969;29;20474;-71
2021/05/10 14:19:05;;;;;;;1.67;1.63;;;25.70;85.40;;;;;;4916283;29;20942;-72
2021/05/10 14:24:17;;;;;;;1.50;1.40;;;25.60;84.10;;;;;;4907673;29;20453;-72
2021/05/10 14:26:44;;;;;;;1.83;1.73;;;25.60;84.60;;;;;;4916340;29;20470;-71
2021/05/10 14:29:11;;;;;;;1.50;1.47;;;25.60;85.50;;;;;;4916858;29;20470;-69
2021/05/10 14:31:38;;;;;;;2.20;1.50;;;25.60;85.10;;;;;;4915233;29;20478;-69
2021/05/10 14:34:05;;;;;;;1.70;1.60;;;25.60;86.10;;;;;;4915659;29;20462;-68
2021/05/10 14:36:33;;;;;;;2.40;2.30;;;25.60;86.90;;;;;;4914861;29;20490;-68
2021/05/10 14:38:59;;;;;;;3.20;2.17;;;25.50;87.70;;;;;;4913870;29;20982;-67
2021/05/10 14:41:26;;;;;;;2.43;2.27;;;25.50;89.50;;;;;;4916471;29;20573;-68
2021/05/10 14:43:53;;;;;;;2.57;2.10;;;25.30;90.10;;;;;;4916405;29;20462;-68
2021/05/10 14:46:19;;;;;;;3.80;2.60;;;25.30;90.70;;;;;;4916413;29;20561;-67
2021/05/10 14:48:45;;;;;;;4.47;2.30;;;25.30;91.10;;;;;;4913278;29;20473;-65
2021/05/10 14:51:11;;;;;;;2.17;2.07;;;25.20;91.30;;;;;;4915193;29;21006;-64
2021/05/10 14:53:38;;;;;;;3.20;2.97;;;25.20;91.70;;;;;;4914713;29;20526;-67
2021/05/10 14:56:04;;;;;;;2.40;2.20;;;25.10;91.70;;;;;;4915883;29;20498;-67
2021/05/10 14:58:30;;;;;;;2.37;2.27;;;25.00;91.50;;;;;;4915282;29;20967;-68
2021/05/10 15:00:57;;;;;;;3.27;2.50;;;24.90;91.50;;;;;;4915734;29;20558;-66
2021/05/10 15:03:24;;;;;;;2.80;2.60;;;24.70;91.70;;;;;;4914840;29;20473;-67
2021/05/10 15:05:50;;;;;;;2.60;2.50;;;24.50;91.90;;;;;;4914919;29;20470;-70
2021/05/10 15:08:18;;;;;;;2.30;2.28;;;24.40;92.70;;;;;;4914500;29;20470;-71
2021/05/10 15:10:44;;;;;;;2.93;2.73;;;24.40;92.60;;;;;;4908006;29;20258;-70
2021/05/10 15:13:10;;;;;;;2.40;2.20;;;24.20;93.00;;;;;;4915323;29;20628;-71
2021/05/10 15:15:37;;;;;;;2.50;2.50;;;24.10;93.40;;;;;;4915820;29;20494;-70
2021/05/10 15:18:05;;;;;;;2.37;2.27;;;23.90;93.60;;;;;;4915056;29;20504;-70
2021/05/10 15:20:31;;;;;;;8.40;2.50;;;23.80;93.90;;;;;;4915690;29;20494;-70
2021/05/10 15:22:58;;;;;;;2.90;2.57;;;23.80;94.10;;;;;;4913893;29;20470;-72
2021/05/10 15:25:24;;;;;;;2.70;2.50;;;23.80;94.60;;;;;;4900928;29;20471;-72
2021/05/10 15:27:51;;;;;;;2.50;2.40;;;23.70;94.90;;;;;;4915859;29;20809;-72
2021/05/10 15:30:18;;;;;;;2.77;2.67;;;23.70;94.10;;;;;;4915170;29;20479;-72
2021/05/10 15:32:44;;;;;;;2.40;2.30;;;23.70;94.40;;;;;;4915134;29;20463;-72
2021/05/10 15:35:12;;;;;;;2.50;2.40;;;23.70;94.20;;;;;;4915015;29;20528;-72
2021/05/10 15:37:38;;;;;;;2.50;2.30;;;23.70;94.00;;;;;;4915374;29;20470;-71
2021/05/10 15:40:11;;;;;;;2.20;2.10;;;23.70;94.10;;;;;;4914905;29;20506;-72
2021/05/10 15:42:37;;;;;;;3.10;3.00;;;23.70;94.20;;;;;;4918077;29;20485;-73
2021/05/10 15:45:06;;;;;;;2.03;1.90;;;23.80;94.10;;;;;;4916938;29;20546;-72
2021/05/10 15:47:35;;;;;;;2.63;2.53;;;23.90;94.30;;;;;;4918166;29;20470;-73
2021/05/10 15:50:02;;;;;;;2.37;2.27;;;23.80;94.30;;;;;;4917038;29;20466;-72
2021/05/10 15:52:29;;;;;;;3.00;2.70;;;23.80;94.20;;;;;;4920117;29;20486;-72
2021/05/10 15:54:55;;;;;;;2.60;2.50;;;23.80;94.30;;;;;;4918498;29;20787;-72
2021/05/10 15:57:22;;;;;;;2.53;2.40;;;23.80;94.60;;;;;;4918012;29;20470;-72
2021/05/10 15:59:48;;;;;;;2.00;1.90;;;23.70;94.30;;;;;;4917568;29;20473;-72
2021/05/10 16:02:14;;;;;;;2.00;1.80;;;23.70;94.40;;;;;;4918281;29;20505;-72
2021/05/10 16:04:40;;;;;;;2.67;2.57;;;23.60;94.40;;;;;;4918948;29;20738;-71
2021/05/10 16:07:07;;;;;;;2.10;2.00;;;23.60;94.90;;;;;;4918768;29;20478;-72
2021/05/10 16:09:34;;;;;;;2.40;2.10;;;23.50;94.60;;;;;;4918056;29;20474;-72
2021/05/10 16:12:00;;;;;;;2.10;2.00;;;23.40;95.10;;;;;;4919259;29;20486;-72
2021/05/10 16:14:26;;;;;;;2.00;1.93;;;23.40;95.10;;;;;;4918578;29;20880;-73
2021/05/10 16:16:52;;;;;;;2.83;2.50;;;23.30;95.00;;;;;;4919003;29;20463;-70
2021/05/10 16:19:19;;;;;;;2.13;2.13;;;23.30;95.10;;;;;;4918486;29;20580;-71
2021/05/10 16:21:45;;;;;;;2.00;2.00;;;23.30;95.40;;;;;;4918290;29;20490;-70
2021/05/10 16:24:11;;;;;;;1.90;1.90;;;23.30;95.70;;;;;;4918782;29;20470;-71
2021/05/10 16:26:38;;;;;;;2.03;1.80;;;23.20;96.00;;;;;;4918405;29;20464;-70
2021/05/10 16:29:05;;;;;;;2.20;2.00;;;23.20;96.10;;;;;;4923589;29;20477;-70
2021/05/10 16:31:32;;;;;;;2.00;2.00;;;23.20;96.20;;;;;;4920399;29;20521;-70
2021/05/10 16:33:58;;;;;;;2.47;2.00;;;23.20;97.10;;;;;;4914158;29;20900;-73
2021/05/10 16:36:25;;;;;;;4.10;1.87;;;23.10;96.50;;;;;;4912380;29;20486;-72
2021/05/10 16:38:51;;;;;;;1.30;1.30;;;23.10;96.60;;;;;;4917050;29;20486;-71
2021/05/10 16:41:17;;;;;;;1.60;1.60;;;23.10;96.50;;;;;;4918156;29;20486;-70
2021/05/10 16:43:44;;;;;;;1.90;1.80;;;23.00;96.50;;;;;;4918355;29;20470;-72
2021/05/10 16:46:10;;;;;;;1.40;1.40;;;22.90;96.60;;;;;;4918484;29;20831;-72
2021/05/10 16:48:36;;;;;;;2.50;1.83;;;22.90;96.50;;;;;;4917869;29;20462;-72
2021/05/10 16:51:03;;;;;;;4.87;1.87;;;22.90;96.40;;;;;;4917985;29;20529;-72
2021/05/10 16:53:29;;;;;;;1.40;1.37;;;22.80;96.70;;;;;;4916976;29;20526;-72
2021/05/10 16:55:55;;;;;;;1.77;1.77;;;22.70;97.50;;;;;;4917783;29;20500;-71
2021/05/10 16:58:21;;;;;;;1.80;1.60;;;22.40;98.80;;;;;;4917402;29;20482;-71
2021/05/10 17:00:48;;;;;;;4.27;1.87;;;22.20;99.90;;;;;;4917748;29;20494;-71
2021/05/10 17:03:15;;;;;;;2.97;1.73;;;22.00;99.90;;;;;;4917576;29;20807;-71
2021/05/10 17:05:42;;;;;;;2.00;1.50;;;21.90;99.90;;;;;;4917158;29;20502;-71
2021/05/10 17:08:09;;;;;;;2.03;1.83;;;21.80;99.90;;;;;;4913145;29;20467;-71
2021/05/10 17:10:35;;;;;;;3.40;3.20;;;21.70;99.90;;;;;;4917183;29;20482;-71
2021/05/10 17:13:02;;;;;;;2.40;2.30;;;21.60;99.90;;;;;;4917298;29;20546;-71